Time;durP1;ratioP1;P1;durP2;ratioP2;P2;SDS_P1;SDS_P2;PMS_P1;PMS_P2;Temp;Humidity;BMP_temperature;BMP_pressure;BME280_temperature;BME280_humidity;BME280_pressure;Samples;Min_cycle;Max_cycle;Signal;HPM_P1;HPM_P2
2022/01/11 00:00:15;;;;;;;0.33;0.33;;;1.00;99.90;;;;;;5073613;28;20212;-85
2022/01/11 00:02:44;;;;;;;0.10;0.10;;;1.10;99.90;;;;;;5068258;28;20196;-85
2022/01/11 00:05:22;;;;;;;0.50;0.43;;;1.00;99.90;;;;;;5068021;28;20203;-85
2022/01/11 00:07:48;;;;;;;0.20;0.20;;;0.80;99.90;;;;;;5071351;28;20185;-84
2022/01/11 00:10:22;;;;;;;0.57;0.57;;;0.80;99.90;;;;;;5070547;28;20181;-85
2022/01/11 00:12:47;;;;;;;0.10;0.10;;;0.90;99.90;;;;;;5069876;28;20185;-85
2022/01/11 00:15:13;;;;;;;0.10;0.10;;;0.90;99.90;;;;;;5066705;28;20212;-85
2022/01/11 00:17:39;;;;;;;0.17;0.17;;;1.00;99.90;;;;;;5070333;28;20184;-85
2022/01/11 00:20:06;;;;;;;0.93;0.60;;;1.10;99.90;;;;;;5071634;28;20574;-84
2022/01/11 00:22:36;;;;;;;0.20;0.20;;;1.10;99.90;;;;;;5066731;28;20187;-85
2022/01/11 00:25:01;;;;;;;0.10;0.10;;;1.10;99.90;;;;;;5068573;28;20208;-84
2022/01/11 00:27:27;;;;;;;0.60;0.60;;;1.10;99.90;;;;;;5065262;28;20177;-85
2022/01/11 00:29:55;;;;;;;0.10;0.10;;;1.10;99.90;;;;;;5069745;28;20181;-85
2022/01/11 00:32:33;;;;;;;0.20;0.20;;;1.10;99.90;;;;;;5068598;28;20181;-85
2022/01/11 00:34:59;;;;;;;0.10;0.10;;;1.10;99.90;;;;;;5065016;28;20678;-85
2022/01/11 00:37:26;;;;;;;0.10;0.10;;;1.10;99.90;;;;;;5067231;28;20292;-85
2022/01/11 00:39:52;;;;;;;0.10;0.10;;;1.10;99.90;;;;;;5067688;28;20262;-85
2022/01/11 00:42:19;;;;;;;0.20;0.20;;;1.20;99.90;;;;;;5067877;28;20288;-84
2022/01/11 00:44:45;;;;;;;0.03;0.03;;;1.20;99.90;;;;;;5066922;28;20216;-84
2022/01/11 00:47:10;;;;;;;0.10;0.10;;;1.20;99.90;;;;;;5065255;28;20181;-85
2022/01/11 00:49:39;;;;;;;0.10;0.10;;;1.20;99.90;;;;;;5066501;28;20255;-84
2022/01/11 00:52:05;;;;;;;0.10;0.10;;;1.30;99.90;;;;;;5068708;28;20182;-85
2022/01/11 00:54:30;;;;;;;0.07;0.07;;;1.20;99.90;;;;;;5064806;28;20209;-85
2022/01/11 00:56:56;;;;;;;0.10;0.10;;;1.30;99.90;;;;;;5066266;28;20619;-85
2022/01/11 00:59:22;;;;;;;0.17;0.17;;;1.40;99.90;;;;;;5069077;28;20653;-85
2022/01/11 01:01:47;;;;;;;0.67;0.60;;;1.50;99.90;;;;;;5067333;28;20721;-85
2022/01/11 01:04:13;;;;;;;2.30;0.27;;;1.50;99.90;;;;;;5065185;28;20528;-85
2022/01/11 01:06:39;;;;;;;0.10;0.10;;;1.50;99.90;;;;;;5066596;28;20200;-85
2022/01/11 01:09:06;;;;;;;0.10;0.10;;;1.70;99.90;;;;;;5068565;28;20208;-85
2022/01/11 01:11:32;;;;;;;0.30;0.30;;;1.70;99.90;;;;;;5066271;28;20182;-85
2022/01/11 01:13:58;;;;;;;0.17;0.17;;;1.80;99.90;;;;;;5067872;28;20264;-85
2022/01/11 01:16:24;;;;;;;0.10;0.10;;;1.90;99.90;;;;;;5082926;28;20356;-85
2022/01/11 01:18:50;;;;;;;0.10;0.10;;;2.00;99.90;;;;;;5062920;28;20185;-84
2022/01/11 01:21:16;;;;;;;0.10;0.10;;;2.00;99.90;;;;;;5066048;28;20181;-85
2022/01/11 01:23:41;;;;;;;0.00;0.00;;;2.10;99.90;;;;;;5066319;28;20205;-85
2022/01/11 01:26:07;;;;;;;0.37;0.17;;;2.10;99.90;;;;;;5066390;28;20244;-85
2022/01/11 01:28:32;;;;;;;0.40;0.20;;;2.10;99.90;;;;;;5065083;28;20651;-86
2022/01/11 01:31:01;;;;;;;0.27;0.27;;;2.20;99.90;;;;;;5066451;28;20202;-86
2022/01/11 01:33:29;;;;;;;0.30;0.30;;;2.20;99.90;;;;;;5069864;28;20264;-85
2022/01/11 01:36:01;;;;;;;0.13;0.10;;;2.20;99.90;;;;;;5066740;28;20329;-85
2022/01/11 01:38:27;;;;;;;0.60;0.57;;;2.20;99.90;;;;;;5064922;28;20642;-85
2022/01/11 01:40:59;;;;;;;0.10;0.10;;;2.30;99.90;;;;;;5069726;28;20342;-85
2022/01/11 01:43:25;;;;;;;0.60;0.50;;;2.30;99.90;;;;;;5069287;28;20188;-85
2022/01/11 01:45:52;;;;;;;0.40;0.30;;;2.30;99.90;;;;;;5068371;28;20210;-85
2022/01/11 01:48:19;;;;;;;0.13;0.13;;;2.40;99.90;;;;;;5068669;28;20561;-85
2022/01/11 01:50:47;;;;;;;0.10;0.10;;;2.40;99.90;;;;;;5065265;28;20231;-85
2022/01/11 01:53:14;;;;;;;0.20;0.20;;;2.40;99.90;;;;;;5066773;28;20186;-85
2022/01/11 01:55:41;;;;;;;0.10;0.10;;;2.40;99.90;;;;;;5069188;28;21141;-85
2022/01/11 01:58:08;;;;;;;1.43;0.87;;;2.40;99.90;;;;;;5066985;28;20654;-84
2022/01/11 02:00:40;;;;;;;0.20;0.20;;;2.40;99.90;;;;;;5070435;28;20205;-84
2022/01/11 02:03:11;;;;;;;0.10;0.10;;;2.40;99.90;;;;;;5065691;28;20673;-85
2022/01/11 02:05:37;;;;;;;0.10;0.10;;;2.40;99.90;;;;;;5069416;28;20761;-85
2022/01/11 02:08:03;;;;;;;2.50;1.00;;;2.40;99.90;;;;;;5067485;28;20233;-85
2022/01/11 02:10:29;;;;;;;0.10;0.10;;;2.40;99.90;;;;;;5067732;28;20191;-85
2022/01/11 02:12:55;;;;;;;1.87;0.77;;;2.40;99.90;;;;;;5069293;28;20196;-85
2022/01/11 02:15:21;;;;;;;0.10;0.10;;;2.30;99.90;;;;;;5067528;28;20204;-86
2022/01/11 02:17:46;;;;;;;1.03;0.40;;;2.40;99.90;;;;;;5067547;28;20187;-86
2022/01/11 02:20:13;;;;;;;0.30;0.30;;;2.40;99.90;;;;;;5067671;28;20211;-84
2022/01/11 02:22:39;;;;;;;0.10;0.10;;;2.40;99.90;;;;;;5066536;28;20186;-85
2022/01/11 02:25:05;;;;;;;0.20;0.20;;;2.30;99.90;;;;;;5065182;28;20693;-85
2022/01/11 02:27:30;;;;;;;0.23;0.23;;;2.10;99.90;;;;;;5069153;28;20218;-85
2022/01/11 02:29:56;;;;;;;0.30;0.30;;;2.10;99.90;;;;;;5063919;28;20264;-85
2022/01/11 02:32:22;;;;;;;0.20;0.20;;;2.10;99.90;;;;;;5061560;28;20189;-85
2022/01/11 02:34:47;;;;;;;0.47;0.33;;;2.00;99.90;;;;;;5068171;28;20270;-85
2022/01/11 02:37:13;;;;;;;0.10;0.10;;;1.90;99.90;;;;;;5071318;28;20188;-84
2022/01/11 02:39:39;;;;;;;0.33;0.27;;;1.80;99.90;;;;;;5063673;28;20345;-85
2022/01/11 02:42:05;;;;;;;1.43;0.47;;;1.60;99.90;;;;;;5062174;28;20181;-85
2022/01/11 02:44:31;;;;;;;0.27;0.27;;;1.50;99.90;;;;;;5065304;28;20634;-85
2022/01/11 02:46:57;;;;;;;0.27;0.27;;;1.40;99.90;;;;;;5065953;28;20213;-85
2022/01/11 02:49:23;;;;;;;0.90;0.70;;;1.30;99.90;;;;;;5068466;28;20189;-85
2022/01/11 02:51:48;;;;;;;0.50;0.50;;;1.20;99.90;;;;;;5064572;28;20650;-85
2022/01/11 02:54:14;;;;;;;0.40;0.40;;;1.10;99.90;;;;;;5069320;28;20187;-84
2022/01/11 02:56:39;;;;;;;0.53;0.53;;;1.10;99.90;;;;;;5062809;28;20656;-85
2022/01/11 02:59:05;;;;;;;0.40;0.40;;;1.00;99.90;;;;;;5066622;28;20224;-85
2022/01/11 03:01:30;;;;;;;0.20;0.20;;;1.00;99.90;;;;;;5067430;28;20185;-85
2022/01/11 03:03:56;;;;;;;0.53;0.47;;;1.00;99.90;;;;;;5064699;28;20185;-85
2022/01/11 03:06:22;;;;;;;0.90;0.60;;;1.00;99.90;;;;;;5063046;28;20223;-85
2022/01/11 03:08:48;;;;;;;1.70;1.60;;;0.90;99.90;;;;;;5068970;28;20208;-85
2022/01/11 03:11:16;;;;;;;0.60;0.60;;;0.90;99.90;;;;;;5065507;28;20563;-84
2022/01/11 03:13:43;;;;;;;0.30;0.30;;;0.90;99.90;;;;;;5066418;28;20186;-84
2022/01/11 03:16:10;;;;;;;0.23;0.23;;;0.80;99.90;;;;;;5066502;28;20278;-84
2022/01/11 03:18:36;;;;;;;0.43;0.43;;;0.90;99.90;;;;;;5066921;28;20189;-85
2022/01/11 03:21:02;;;;;;;0.43;0.20;;;0.80;99.90;;;;;;5065578;28;20224;-85
2022/01/11 03:23:28;;;;;;;1.40;1.30;;;0.90;99.90;;;;;;5062617;28;20176;-85
2022/01/11 03:25:53;;;;;;;0.20;0.20;;;0.90;99.90;;;;;;5064275;28;20220;-84
2022/01/11 03:28:23;;;;;;;0.40;0.40;;;0.90;99.90;;;;;;5061571;28;20234;-85
2022/01/11 03:30:51;;;;;;;0.30;0.30;;;0.90;99.90;;;;;;5066717;28;20189;-85
2022/01/11 03:33:17;;;;;;;0.97;0.97;;;1.00;99.90;;;;;;5067854;28;20268;-84
2022/01/11 03:35:43;;;;;;;2.10;0.60;;;1.00;99.90;;;;;;5064935;28;20642;-84
2022/01/11 03:38:11;;;;;;;0.70;0.70;;;1.00;99.90;;;;;;5066796;28;20275;-84
2022/01/11 03:40:39;;;;;;;1.03;0.47;;;1.00;99.90;;;;;;5066315;28;20205;-85
2022/01/11 03:43:05;;;;;;;0.40;0.40;;;1.00;99.90;;;;;;5065487;28;20211;-85
2022/01/11 03:45:31;;;;;;;0.80;0.63;;;1.00;99.90;;;;;;5064115;28;20207;-85
2022/01/11 03:47:59;;;;;;;1.70;0.67;;;1.00;99.90;;;;;;5066551;28;20189;-85
2022/01/11 03:50:25;;;;;;;1.63;0.60;;;0.90;99.90;;;;;;5065596;28;20274;-85
2022/01/11 03:52:58;;;;;;;1.40;0.53;;;1.00;99.90;;;;;;5060416;28;20624;-84
2022/01/11 03:55:44;;;;;;;0.67;0.57;;;0.90;99.90;;;;;;5064973;28;20287;-85
2022/01/11 03:58:10;;;;;;;0.57;0.57;;;1.00;99.90;;;;;;5066668;28;20192;-84
2022/01/11 04:00:36;;;;;;;0.10;0.10;;;1.00;99.90;;;;;;5061973;28;20197;-85
2022/01/11 04:03:03;;;;;;;0.20;0.20;;;0.90;99.90;;;;;;5063813;28;20181;-85
2022/01/11 04:05:29;;;;;;;0.83;0.23;;;0.90;99.90;;;;;;5065152;28;20714;-85
2022/01/11 04:07:54;;;;;;;0.33;0.33;;;0.90;99.90;;;;;;5065568;28;20326;-84
2022/01/11 04:10:20;;;;;;;0.77;0.60;;;0.80;99.90;;;;;;5064581;28;20200;-85
2022/01/11 04:12:48;;;;;;;0.30;0.20;;;0.80;99.90;;;;;;5065816;28;21178;-84
2022/01/11 04:15:15;;;;;;;0.73;0.50;;;0.80;99.90;;;;;;5060502;28;20209;-84
2022/01/11 04:17:41;;;;;;;0.43;0.40;;;0.80;99.90;;;;;;5065686;28;20193;-84
2022/01/11 04:20:07;;;;;;;0.20;0.20;;;0.80;99.90;;;;;;5064228;28;20197;-84
2022/01/11 04:22:32;;;;;;;0.33;0.33;;;0.80;99.90;;;;;;5062303;28;20185;-84
2022/01/11 04:24:58;;;;;;;0.33;0.33;;;0.80;99.90;;;;;;5068109;28;20203;-84
2022/01/11 04:27:24;;;;;;;0.17;0.17;;;0.80;99.90;;;;;;5065502;28;20180;-83
2022/01/11 04:29:49;;;;;;;0.30;0.30;;;0.90;99.90;;;;;;5062996;28;20193;-84
2022/01/11 04:32:15;;;;;;;0.57;0.57;;;0.90;99.90;;;;;;5068022;28;20211;-82
2022/01/11 04:34:40;;;;;;;0.30;0.30;;;0.90;99.90;;;;;;5066129;28;20205;-84
2022/01/11 04:37:06;;;;;;;0.40;0.40;;;0.90;99.90;;;;;;5066508;28;20219;-83
2022/01/11 04:39:32;;;;;;;0.67;0.67;;;0.90;99.90;;;;;;5067691;28;20213;-84
2022/01/11 04:41:58;;;;;;;0.60;0.60;;;0.90;99.90;;;;;;5067883;28;20185;-84
2022/01/11 04:44:23;;;;;;;0.80;0.60;;;1.00;99.90;;;;;;5067860;28;20210;-84
2022/01/11 04:46:49;;;;;;;0.40;0.40;;;1.10;99.90;;;;;;5064942;28;20193;-84
2022/01/11 04:49:15;;;;;;;0.77;0.30;;;1.10;99.90;;;;;;5064240;28;20200;-83
2022/01/11 04:51:41;;;;;;;0.30;0.30;;;1.20;99.90;;;;;;5062414;28;20189;-84
2022/01/11 04:54:07;;;;;;;0.97;0.33;;;1.20;99.90;;;;;;5064573;28;20241;-84
2022/01/11 04:56:32;;;;;;;0.00;0.00;;;1.20;99.90;;;;;;5065291;28;20193;-83
2022/01/11 04:58:58;;;;;;;0.30;0.30;;;1.30;99.90;;;;;;5066726;28;20256;-83
2022/01/11 05:01:24;;;;;;;1.30;1.20;;;1.20;99.90;;;;;;5064775;28;20192;-83
2022/01/11 05:03:50;;;;;;;0.10;0.10;;;1.20;99.90;;;;;;5063938;28;20200;-84
2022/01/11 05:06:15;;;;;;;1.23;0.93;;;1.20;99.90;;;;;;5069943;28;20208;-83
2022/01/11 05:08:42;;;;;;;0.20;0.20;;;1.20;99.90;;;;;;5069580;28;20243;-83
2022/01/11 05:11:08;;;;;;;0.20;0.20;;;1.20;99.90;;;;;;5070472;28;20191;-84
2022/01/11 05:13:34;;;;;;;0.10;0.10;;;1.10;99.90;;;;;;5069316;28;20192;-84
2022/01/11 05:16:02;;;;;;;1.27;0.30;;;1.20;99.90;;;;;;5063786;28;20201;-84
2022/01/11 05:18:29;;;;;;;0.53;0.53;;;1.30;99.90;;;;;;5068678;28;20975;-83
2022/01/11 05:20:54;;;;;;;0.10;0.10;;;1.30;99.90;;;;;;5069078;28;20273;-83
2022/01/11 05:23:20;;;;;;;0.20;0.20;;;1.30;99.90;;;;;;5069926;28;20181;-84
2022/01/11 05:25:46;;;;;;;0.13;0.13;;;1.30;99.90;;;;;;5069635;28;20232;-84
2022/01/11 05:28:11;;;;;;;0.30;0.30;;;1.30;99.90;;;;;;5067020;28;20655;-84
2022/01/11 05:30:37;;;;;;;0.70;0.50;;;1.30;99.90;;;;;;5066649;28;20193;-84
2022/01/11 05:33:05;;;;;;;0.30;0.30;;;1.20;99.90;;;;;;5069886;28;20212;-84
2022/01/11 05:35:31;;;;;;;0.50;0.50;;;1.20;99.90;;;;;;5068067;28;20209;-83
2022/01/11 05:37:56;;;;;;;2.17;0.60;;;1.20;99.90;;;;;;5068437;28;20193;-84
2022/01/11 05:40:22;;;;;;;0.63;0.47;;;1.10;99.90;;;;;;5064596;28;20236;-84
2022/01/11 05:42:49;;;;;;;0.20;0.20;;;1.10;99.90;;;;;;5064580;28;20280;-84
2022/01/11 05:45:16;;;;;;;0.50;0.37;;;1.10;99.90;;;;;;5068798;28;20741;-83
2022/01/11 05:47:41;;;;;;;0.20;0.20;;;1.10;99.90;;;;;;5068368;28;20192;-83
2022/01/11 05:50:09;;;;;;;0.20;0.17;;;1.00;99.90;;;;;;5066511;28;20562;-84
2022/01/11 05:52:38;;;;;;;1.20;0.90;;;1.10;99.90;;;;;;5068202;28;20196;-84
2022/01/11 05:55:06;;;;;;;0.37;0.30;;;1.10;99.90;;;;;;5068095;28;20214;-84
2022/01/11 05:57:32;;;;;;;0.40;0.40;;;1.10;99.90;;;;;;5068286;28;20193;-83
2022/01/11 05:59:57;;;;;;;0.57;0.57;;;1.10;99.90;;;;;;5063869;28;20216;-84
2022/01/11 06:02:23;;;;;;;0.50;0.50;;;1.10;99.90;;;;;;5065616;28;20330;-84
2022/01/11 06:04:49;;;;;;;1.33;0.93;;;1.10;99.90;;;;;;5068467;28;20198;-83
2022/01/11 06:07:14;;;;;;;1.80;0.60;;;1.20;99.90;;;;;;5068247;28;20181;-83
2022/01/11 06:09:40;;;;;;;0.27;0.23;;;1.10;99.90;;;;;;5069301;28;20196;-84
2022/01/11 06:12:06;;;;;;;0.73;0.73;;;1.10;99.90;;;;;;5063519;28;20185;-84
2022/01/11 06:14:32;;;;;;;0.27;0.27;;;1.00;99.90;;;;;;5065140;28;20201;-84
2022/01/11 06:16:57;;;;;;;0.53;0.50;;;1.00;99.90;;;;;;5066025;28;20189;-84
2022/01/11 06:19:23;;;;;;;0.10;0.10;;;1.10;99.90;;;;;;5067737;28;20217;-84
2022/01/11 06:21:48;;;;;;;0.13;0.13;;;1.20;99.90;;;;;;5064306;28;20189;-84
2022/01/11 06:24:14;;;;;;;0.30;0.30;;;1.20;99.90;;;;;;5066887;28;20266;-84
2022/01/11 06:26:41;;;;;;;0.60;0.60;;;1.10;99.90;;;;;;5064470;28;20182;-83
2022/01/11 06:29:07;;;;;;;1.47;0.77;;;1.00;99.90;;;;;;5066348;28;20235;-84
2022/01/11 06:31:35;;;;;;;0.20;0.20;;;0.90;99.90;;;;;;5066582;28;20181;-84
2022/01/11 06:34:01;;;;;;;0.27;0.27;;;0.90;99.90;;;;;;5063483;28;20179;-83
2022/01/11 06:36:27;;;;;;;1.70;0.37;;;0.80;99.90;;;;;;5068273;28;20177;-83
2022/01/11 06:38:52;;;;;;;1.10;0.70;;;0.80;99.90;;;;;;5068958;28;20549;-84
2022/01/11 06:41:18;;;;;;;0.20;0.20;;;0.80;99.90;;;;;;5067437;28;20219;-83
2022/01/11 06:43:44;;;;;;;0.20;0.20;;;0.80;99.90;;;;;;5067051;28;20183;-83
2022/01/11 06:46:09;;;;;;;0.10;0.10;;;0.90;99.90;;;;;;5068745;28;20254;-83
2022/01/11 06:48:35;;;;;;;1.10;1.03;;;0.70;99.90;;;;;;5065738;28;20246;-83
2022/01/11 06:51:01;;;;;;;0.20;0.20;;;0.70;99.90;;;;;;5063647;28;20263;-83
2022/01/11 06:53:28;;;;;;;0.10;0.10;;;0.70;99.90;;;;;;5060231;28;20189;-82
2022/01/11 06:55:54;;;;;;;0.30;0.30;;;0.80;99.90;;;;;;5061519;28;20235;-82
2022/01/11 06:58:21;;;;;;;0.20;0.20;;;0.70;99.90;;;;;;5067416;28;20189;-81
2022/01/11 07:00:48;;;;;;;0.40;0.40;;;0.70;99.90;;;;;;5065282;28;20232;-81
2022/01/11 07:03:15;;;;;;;0.40;0.30;;;0.70;99.90;;;;;;5064011;28;20184;-84
2022/01/11 07:05:44;;;;;;;0.20;0.20;;;0.70;99.90;;;;;;5065181;28;20670;-84
2022/01/11 07:08:11;;;;;;;0.97;0.40;;;0.60;99.90;;;;;;5067812;28;20318;-84
2022/01/11 07:10:37;;;;;;;1.53;1.43;;;0.60;99.90;;;;;;5070728;28;20181;-83
2022/01/11 07:13:03;;;;;;;0.17;0.17;;;0.60;99.90;;;;;;5069484;28;20185;-84
2022/01/11 07:15:30;;;;;;;0.70;0.70;;;0.60;99.90;;;;;;5067037;28;20216;-83
2022/01/11 07:17:55;;;;;;;0.30;0.30;;;0.60;99.90;;;;;;5071650;28;20192;-84
2022/01/11 07:20:22;;;;;;;1.40;0.97;;;0.60;99.90;;;;;;5071146;28;20209;-83
2022/01/11 07:22:48;;;;;;;0.10;0.10;;;0.50;99.90;;;;;;5074606;28;20219;-83
2022/01/11 07:25:14;;;;;;;0.30;0.30;;;0.50;99.90;;;;;;5071054;28;20566;-84
2022/01/11 07:27:39;;;;;;;0.10;0.10;;;0.50;99.90;;;;;;5069230;28;20272;-83
2022/01/11 07:30:06;;;;;;;0.20;0.20;;;0.50;99.90;;;;;;5072252;28;20210;-84
2022/01/11 07:32:33;;;;;;;0.83;0.83;;;0.50;99.90;;;;;;5075891;28;20709;-83
2022/01/11 07:34:59;;;;;;;0.10;0.10;;;0.60;99.90;;;;;;5076159;28;20264;-84
2022/01/11 07:37:25;;;;;;;1.50;0.60;;;0.60;99.90;;;;;;5068898;28;20209;-83
2022/01/11 07:39:51;;;;;;;0.93;0.43;;;0.60;99.90;;;;;;5073326;28;20299;-86
2022/01/11 07:42:17;;;;;;;0.07;0.07;;;0.50;99.90;;;;;;5065535;28;20205;-84
2022/01/11 07:44:47;;;;;;;0.13;0.13;;;0.40;99.90;;;;;;5067066;28;20201;-84
2022/01/11 07:47:12;;;;;;;0.10;0.10;;;0.40;99.90;;;;;;5067216;28;20371;-84
2022/01/11 07:49:38;;;;;;;0.20;0.20;;;0.40;99.90;;;;;;5070346;28;20542;-85
2022/01/11 07:52:04;;;;;;;0.23;0.23;;;0.40;99.90;;;;;;5065547;28;20181;-84
2022/01/11 07:54:29;;;;;;;0.43;0.43;;;0.40;99.90;;;;;;5073445;28;20196;-83
2022/01/11 07:56:55;;;;;;;0.57;0.57;;;0.40;99.90;;;;;;5077411;28;20282;-85
2022/01/11 07:59:20;;;;;;;0.53;0.53;;;0.50;99.90;;;;;;5077142;28;20213;-85
2022/01/11 08:01:46;;;;;;;0.20;0.20;;;0.60;99.90;;;;;;5077884;28;20189;-84
2022/01/11 08:04:11;;;;;;;0.77;0.63;;;0.60;99.90;;;;;;5073527;28;20720;-84
2022/01/11 08:06:37;;;;;;;0.10;0.10;;;0.50;99.90;;;;;;5075505;28;20193;-84
2022/01/11 08:09:04;;;;;;;0.10;0.10;;;0.40;99.90;;;;;;5071996;28;20192;-84
2022/01/11 08:11:29;;;;;;;0.70;0.20;;;0.50;99.90;;;;;;5071687;28;20185;-84
2022/01/11 08:13:55;;;;;;;0.63;0.17;;;0.60;99.90;;;;;;5067814;28;20185;-84
2022/01/11 08:16:21;;;;;;;0.60;0.60;;;0.70;99.90;;;;;;5063943;28;20226;-84
2022/01/11 08:18:47;;;;;;;0.93;0.53;;;0.70;99.90;;;;;;5066458;28;20193;-85
2022/01/11 08:21:12;;;;;;;0.20;0.20;;;0.90;99.90;;;;;;5067994;28;20272;-84
2022/01/11 08:23:38;;;;;;;0.83;0.73;;;0.80;99.90;;;;;;5066664;28;20177;-84
2022/01/11 08:26:03;;;;;;;0.47;0.47;;;0.80;99.90;;;;;;5071896;28;20286;-84
2022/01/11 08:28:29;;;;;;;0.10;0.10;;;0.90;99.90;;;;;;5074106;28;20181;-84
2022/01/11 08:30:57;;;;;;;0.27;0.27;;;0.90;99.90;;;;;;5072471;28;20177;-83
2022/01/11 08:33:23;;;;;;;0.63;0.63;;;1.00;99.90;;;;;;5074248;28;20620;-83
2022/01/11 08:35:48;;;;;;;0.53;0.20;;;1.10;99.90;;;;;;5071323;28;20235;-84
2022/01/11 08:38:14;;;;;;;0.20;0.20;;;1.10;99.90;;;;;;5067497;28;20234;-83
2022/01/11 08:40:40;;;;;;;0.73;0.57;;;1.10;99.90;;;;;;5069617;28;20250;-84
2022/01/11 08:43:05;;;;;;;0.33;0.33;;;1.30;99.90;;;;;;5074215;28;20178;-83
2022/01/11 08:45:32;;;;;;;0.53;0.53;;;1.30;99.90;;;;;;5070789;28;20212;-83
2022/01/11 08:47:59;;;;;;;1.60;0.43;;;1.30;99.90;;;;;;5072778;28;20614;-84
2022/01/11 08:50:25;;;;;;;0.43;0.43;;;1.30;99.90;;;;;;5065016;28;20184;-83
2022/01/11 08:52:51;;;;;;;0.20;0.20;;;1.40;99.90;;;;;;5072208;28;20318;-84
2022/01/11 08:55:17;;;;;;;0.07;0.07;;;1.40;99.90;;;;;;5070527;28;20715;-84
2022/01/11 08:57:44;;;;;;;0.30;0.30;;;1.50;99.90;;;;;;5070130;28;20207;-84
2022/01/11 09:00:16;;;;;;;0.10;0.10;;;1.50;99.90;;;;;;5071093;28;20470;-83
2022/01/11 09:02:45;;;;;;;0.30;0.30;;;1.60;99.90;;;;;;5072114;28;20273;-83
2022/01/11 09:05:11;;;;;;;1.60;0.50;;;1.70;99.90;;;;;;5068307;28;20230;-84
2022/01/11 09:07:36;;;;;;;0.37;0.37;;;1.70;99.90;;;;;;5067983;28;20196;-85
2022/01/11 09:10:04;;;;;;;0.20;0.20;;;1.70;99.90;;;;;;5066267;28;20206;-85
2022/01/11 09:12:29;;;;;;;0.20;0.20;;;1.80;99.90;;;;;;5063915;28;20196;-84
2022/01/11 09:14:55;;;;;;;0.10;0.10;;;1.90;99.90;;;;;;5064854;28;20581;-84
2022/01/11 09:17:20;;;;;;;0.97;0.97;;;2.00;99.90;;;;;;5065131;28;20638;-85
2022/01/11 09:19:46;;;;;;;0.53;0.20;;;2.10;99.90;;;;;;5058620;28;20598;-84
2022/01/11 09:22:13;;;;;;;0.20;0.20;;;2.20;99.90;;;;;;5058733;28;20571;-83
2022/01/11 09:24:38;;;;;;;0.00;0.00;;;2.30;99.90;;;;;;5064475;28;20219;-82
2022/01/11 09:27:05;;;;;;;0.57;0.57;;;2.30;99.90;;;;;;5064029;28;20553;-81
2022/01/11 09:29:34;;;;;;;0.50;0.50;;;2.30;99.90;;;;;;5060720;28;20294;-80
2022/01/11 09:32:01;;;;;;;0.60;0.30;;;2.40;99.90;;;;;;5061178;28;20186;-82
2022/01/11 09:34:27;;;;;;;0.10;0.10;;;2.40;99.90;;;;;;5054369;28;20219;-83
2022/01/11 09:36:53;;;;;;;0.10;0.10;;;2.50;99.90;;;;;;5057479;28;20187;-83
2022/01/11 09:39:19;;;;;;;0.30;0.30;;;2.50;99.90;;;;;;5063534;28;20207;-83
2022/01/11 09:41:44;;;;;;;0.20;0.20;;;2.70;99.90;;;;;;5068724;28;20677;-82
2022/01/11 09:44:12;;;;;;;0.30;0.30;;;2.70;99.90;;;;;;5068215;28;20196;-83
2022/01/11 09:46:38;;;;;;;0.20;0.20;;;2.80;99.90;;;;;;5066159;28;20190;-83
2022/01/11 09:49:05;;;;;;;0.20;0.20;;;2.80;99.90;;;;;;5067387;28;20186;-83
2022/01/11 09:51:33;;;;;;;0.10;0.10;;;2.90;99.90;;;;;;5064751;28;20193;-83
2022/01/11 09:53:59;;;;;;;0.30;0.27;;;3.00;99.90;;;;;;5069653;28;20192;-83
2022/01/11 09:56:25;;;;;;;0.43;0.43;;;3.00;99.90;;;;;;5068360;28;20644;-83
2022/01/11 09:58:51;;;;;;;0.43;0.43;;;2.90;99.90;;;;;;5063889;28;20197;-84
2022/01/11 10:01:17;;;;;;;1.17;0.73;;;2.90;99.90;;;;;;5066482;28;20644;-85
2022/01/11 10:04:04;;;;;;;0.20;0.20;;;2.90;99.90;;;;;;5067060;28;20619;-85
2022/01/11 10:06:31;;;;;;;0.60;0.60;;;2.80;99.90;;;;;;5066088;28;20181;-85
2022/01/11 10:09:20;;;;;;;0.20;0.20;;;2.90;99.90;;;;;;5064148;28;20247;-85
2022/01/11 10:11:49;;;;;;;0.97;0.73;;;2.90;99.90;;;;;;5061386;28;21840;-84
2022/01/11 10:14:18;;;;;;;0.33;0.33;;;3.10;99.90;;;;;;5066671;28;20769;-84
2022/01/11 10:16:43;;;;;;;0.30;0.30;;;3.10;99.90;;;;;;5066686;28;20194;-84
2022/01/11 10:19:21;;;;;;;0.30;0.30;;;3.20;99.90;;;;;;5061267;28;20187;-85
2022/01/11 10:21:49;;;;;;;0.60;0.60;;;3.30;99.90;;;;;;5069138;28;20206;-83
2022/01/11 10:24:26;;;;;;;0.87;0.87;;;3.40;99.90;;;;;;5062891;28;20570;-82
2022/01/11 10:26:53;;;;;;;0.30;0.30;;;3.60;99.90;;;;;;5067101;28;20188;-83
2022/01/11 10:29:30;;;;;;;0.73;0.40;;;3.60;99.90;;;;;;5065606;28;20268;-84
2022/01/11 10:31:57;;;;;;;1.40;1.30;;;3.60;99.90;;;;;;5060891;28;20211;-85
2022/01/11 10:34:32;;;;;;;1.13;0.67;;;3.60;99.90;;;;;;5064266;28;20212;-85
2022/01/11 10:37:01;;;;;;;0.70;0.70;;;3.70;99.90;;;;;;5055710;28;20221;-85
2022/01/11 10:39:29;;;;;;;0.67;0.67;;;3.80;99.90;;;;;;5051620;28;20934;-84
2022/01/11 10:41:57;;;;;;;0.30;0.30;;;3.70;99.90;;;;;;5051276;28;20792;-85
2022/01/11 10:44:43;;;;;;;0.50;0.50;;;3.80;99.90;;;;;;5050007;28;20214;-84
2022/01/11 10:47:09;;;;;;;0.47;0.47;;;3.90;99.90;;;;;;5055919;28;20313;-84
2022/01/11 10:49:36;;;;;;;2.37;0.60;;;4.00;99.90;;;;;;5065454;28;20222;-85
2022/01/11 10:52:19;;;;;;;0.83;0.83;;;4.10;99.90;;;;;;5065864;28;20184;-83
2022/01/11 10:54:46;;;;;;;2.73;0.50;;;3.90;99.90;;;;;;5065960;28;20198;-83
2022/01/11 10:57:23;;;;;;;0.50;0.47;;;4.00;99.90;;;;;;5059862;28;20187;-84
2022/01/11 11:00:16;;;;;;;0.90;0.43;;;4.20;99.90;;;;;;5064502;28;20218;-85
2022/01/11 11:02:45;;;;;;;0.57;0.57;;;4.20;99.90;;;;;;5068522;28;21213;-85
2022/01/11 11:05:25;;;;;;;0.90;0.67;;;4.20;99.90;;;;;;5066150;28;20210;-85
2022/01/11 11:08:34;;;;;;;0.30;0.27;;;4.40;99.90;;;;;;5082688;28;20191;-84
2022/01/11 11:11:03;;;;;;;0.37;0.37;;;4.50;99.90;;;;;;5021599;28;20194;-85
2022/01/11 11:13:37;;;;;;;1.00;0.60;;;4.50;99.90;;;;;;5053353;28;20695;-83
2022/01/11 11:16:37;;;;;;;0.40;0.40;;;4.50;99.90;;;;;;5063748;28;20212;-85
2022/01/11 11:19:04;;;;;;;1.10;0.87;;;4.60;99.90;;;;;;5058239;28;20205;-85
2022/01/11 11:21:32;;;;;;;0.30;0.30;;;4.60;99.90;;;;;;5061174;28;20776;-84
2022/01/11 11:24:07;;;;;;;2.23;0.90;;;4.60;99.90;;;;;;5066560;28;20656;-85
2022/01/11 11:26:37;;;;;;;0.43;0.40;;;4.50;99.90;;;;;;5080260;28;20648;-85
2022/01/11 11:29:03;;;;;;;0.93;0.80;;;4.50;99.90;;;;;;5083607;28;20237;-84
2022/01/11 11:31:29;;;;;;;0.80;0.80;;;4.50;99.90;;;;;;5063593;28;20584;-85
2022/01/11 11:33:55;;;;;;;3.17;1.27;;;4.50;99.90;;;;;;5068143;28;20187;-84
2022/01/11 11:36:21;;;;;;;0.63;0.60;;;4.50;99.90;;;;;;5069778;28;20203;-84
2022/01/11 11:39:06;;;;;;;0.73;0.60;;;4.60;99.90;;;;;;5070418;28;20185;-84
2022/01/11 11:41:39;;;;;;;0.50;0.47;;;4.70;99.90;;;;;;5069081;28;20673;-85
2022/01/11 11:44:18;;;;;;;0.40;0.40;;;4.60;99.90;;;;;;5072316;28;20177;-84
2022/01/11 11:46:53;;;;;;;0.37;0.30;;;4.70;99.90;;;;;;5070814;28;20182;-84
2022/01/11 11:49:46;;;;;;;2.17;1.03;;;4.80;99.90;;;;;;5069807;28;20222;-85
2022/01/11 11:52:20;;;;;;;0.33;0.23;;;4.90;99.90;;;;;;5070874;28;20586;-85
2022/01/11 11:54:49;;;;;;;0.83;0.40;;;5.00;99.90;;;;;;5067519;28;20287;-84
2022/01/11 11:57:16;;;;;;;1.13;0.73;;;5.00;99.90;;;;;;5071752;28;20552;-85
2022/01/11 11:59:50;;;;;;;0.80;0.80;;;5.00;99.90;;;;;;5070408;28;20223;-85
2022/01/11 12:02:33;;;;;;;0.23;0.23;;;5.10;99.90;;;;;;5068888;28;20761;-84
2022/01/11 12:04:59;;;;;;;1.03;0.93;;;5.20;99.90;;;;;;5068685;28;20271;-85
2022/01/11 12:07:38;;;;;;;1.30;0.40;;;5.30;99.90;;;;;;5063350;28;20247;-85
2022/01/11 12:10:06;;;;;;;0.30;0.30;;;5.50;99.90;;;;;;5069688;28;20230;-84
2022/01/11 12:12:49;;;;;;;0.60;0.40;;;5.60;99.90;;;;;;5067799;28;20737;-84
2022/01/11 12:15:35;;;;;;;1.43;1.33;;;5.80;99.90;;;;;;5063620;28;20211;-84
2022/01/11 12:18:00;;;;;;;0.47;0.47;;;5.80;99.90;;;;;;5061521;28;20185;-83
2022/01/11 12:20:46;;;;;;;0.67;0.67;;;5.80;99.90;;;;;;5063770;28;20216;-83
2022/01/11 12:23:53;;;;;;;2.90;0.70;;;5.70;99.90;;;;;;5069684;28;20798;-83
2022/01/11 12:26:23;;;;;;;0.20;0.20;;;5.80;99.90;;;;;;5064895;28;20210;-83
2022/01/11 12:29:09;;;;;;;1.97;0.67;;;5.90;99.90;;;;;;5065631;28;20180;-83
2022/01/11 12:31:36;;;;;;;0.60;0.60;;;5.90;99.90;;;;;;5064470;28;20185;-83
2022/01/11 12:34:02;;;;;;;1.63;1.23;;;5.80;99.90;;;;;;5070750;28;20201;-84
2022/01/11 12:36:54;;;;;;;1.53;0.77;;;5.80;99.90;;;;;;5066946;28;20200;-84
2022/01/11 12:39:22;;;;;;;0.50;0.50;;;5.90;99.90;;;;;;5068352;28;20183;-83
2022/01/11 12:41:48;;;;;;;1.33;1.13;;;6.00;99.90;;;;;;5063368;28;20180;-84
2022/01/11 12:44:24;;;;;;;1.07;0.77;;;6.10;99.90;;;;;;5061322;28;20291;-83
2022/01/11 12:46:59;;;;;;;0.60;0.60;;;6.10;99.90;;;;;;5061996;28;20720;-83
2022/01/11 12:49:26;;;;;;;2.27;1.00;;;6.20;99.90;;;;;;5062240;28;20504;-83
2022/01/11 12:51:57;;;;;;;1.20;0.77;;;6.10;99.90;;;;;;5065311;28;20189;-83
2022/01/11 12:54:29;;;;;;;1.03;0.97;;;6.10;99.90;;;;;;5065648;28;20606;-83
2022/01/11 12:57:15;;;;;;;3.83;0.97;;;6.20;99.90;;;;;;5056937;28;20207;-83
2022/01/11 12:59:48;;;;;;;0.70;0.70;;;6.20;99.90;;;;;;5062264;28;20221;-83
2022/01/11 13:02:25;;;;;;;1.33;0.93;;;6.20;99.90;;;;;;5062654;28;20635;-83